sensor_id;sensor_type;location;lat;lon;timestamp;P1;durP1;ratioP1;P2;durP2;ratioP2
5416;SDS011;2731;50.754;12.990;2023-01-30T00:00:29;16.73;;;8.77;;
5416;SDS011;2731;50.754;12.990;2023-01-30T00:02:57;13.95;;;7.25;;
5416;SDS011;2731;50.754;12.990;2023-01-30T00:05:25;15.50;;;7.10;;
5416;SDS011;2731;50.754;12.990;2023-01-30T00:07:52;16.33;;;8.07;;
5416;SDS011;2731;50.754;12.990;2023-01-30T00:10:18;14.70;;;8.18;;
5416;SDS011;2731;50.754;12.990;2023-01-30T00:12:44;15.07;;;7.97;;
5416;SDS011;2731;50.754;12.990;2023-01-30T00:15:10;13.13;;;7.75;;
5416;SDS011;2731;50.754;12.990;2023-01-30T00:17:36;13.57;;;8.52;;
5416;SDS011;2731;50.754;12.990;2023-01-30T00:20:04;12.75;;;7.05;;
5416;SDS011;2731;50.754;12.990;2023-01-30T00:22:31;15.65;;;8.63;;
5416;SDS011;2731;50.754;12.990;2023-01-30T00:24:57;14.40;;;7.97;;
5416;SDS011;2731;50.754;12.990;2023-01-30T00:27:23;13.35;;;7.22;;
5416;SDS011;2731;50.754;12.990;2023-01-30T00:29:49;13.88;;;8.20;;
5416;SDS011;2731;50.754;12.990;2023-01-30T00:32:15;14.05;;;7.25;;
5416;SDS011;2731;50.754;12.990;2023-01-30T00:34:41;17.35;;;9.13;;
5416;SDS011;2731;50.754;12.990;2023-01-30T00:37:07;19.02;;;9.23;;
5416;SDS011;2731;50.754;12.990;2023-01-30T00:39:33;12.23;;;7.22;;
5416;SDS011;2731;50.754;12.990;2023-01-30T00:41:59;16.83;;;8.55;;
5416;SDS011;2731;50.754;12.990;2023-01-30T00:44:44;17.25;;;9.43;;
5416;SDS011;2731;50.754;12.990;2023-01-30T00:47:29;17.08;;;8.80;;
5416;SDS011;2731;50.754;12.990;2023-01-30T00:49:55;15.90;;;10.25;;
5416;SDS011;2731;50.754;12.990;2023-01-30T00:52:22;19.20;;;10.38;;
5416;SDS011;2731;50.754;12.990;2023-01-30T00:54:48;19.58;;;9.43;;
5416;SDS011;2731;50.754;12.990;2023-01-30T00:57:16;17.73;;;9.50;;
5416;SDS011;2731;50.754;12.990;2023-01-30T00:59:42;21.08;;;10.63;;
5416;SDS011;2731;50.754;12.990;2023-01-30T01:02:08;17.10;;;9.15;;
5416;SDS011;2731;50.754;12.990;2023-01-30T01:04:34;18.23;;;9.35;;
5416;SDS011;2731;50.754;12.990;2023-01-30T01:07:08;18.27;;;8.93;;
5416;SDS011;2731;50.754;12.990;2023-01-30T01:09:35;15.88;;;9.68;;
5416;SDS011;2731;50.754;12.990;2023-01-30T01:12:01;18.13;;;10.20;;
5416;SDS011;2731;50.754;12.990;2023-01-30T01:14:27;18.45;;;9.70;;
5416;SDS011;2731;50.754;12.990;2023-01-30T01:16:53;19.38;;;9.65;;
5416;SDS011;2731;50.754;12.990;2023-01-30T01:19:19;18.33;;;10.73;;
5416;SDS011;2731;50.754;12.990;2023-01-30T01:21:46;18.83;;;10.52;;
5416;SDS011;2731;50.754;12.990;2023-01-30T01:24:12;20.40;;;10.90;;
5416;SDS011;2731;50.754;12.990;2023-01-30T01:26:39;17.05;;;9.50;;
5416;SDS011;2731;50.754;12.990;2023-01-30T01:29:06;17.20;;;9.85;;
5416;SDS011;2731;50.754;12.990;2023-01-30T01:31:33;19.65;;;10.73;;
5416;SDS011;2731;50.754;12.990;2023-01-30T01:33:59;17.38;;;9.45;;
5416;SDS011;2731;50.754;12.990;2023-01-30T01:36:25;21.27;;;11.10;;
5416;SDS011;2731;50.754;12.990;2023-01-30T01:38:51;23.00;;;10.55;;
5416;SDS011;2731;50.754;12.990;2023-01-30T01:41:17;19.63;;;10.80;;
5416;SDS011;2731;50.754;12.990;2023-01-30T01:46:30;17.55;;;10.02;;
5416;SDS011;2731;50.754;12.990;2023-01-30T01:48:57;16.65;;;9.52;;
5416;SDS011;2731;50.754;12.990;2023-01-30T01:51:32;19.75;;;9.93;;
5416;SDS011;2731;50.754;12.990;2023-01-30T01:54:08;19.48;;;9.90;;
5416;SDS011;2731;50.754;12.990;2023-01-30T01:56:36;19.42;;;9.48;;
5416;SDS011;2731;50.754;12.990;2023-01-30T01:59:05;17.08;;;10.43;;
5416;SDS011;2731;50.754;12.990;2023-01-30T02:01:32;26.75;;;11.15;;
5416;SDS011;2731;50.754;12.990;2023-01-30T02:03:59;17.08;;;10.18;;
5416;SDS011;2731;50.754;12.990;2023-01-30T02:06:28;13.90;;;8.48;;
5416;SDS011;2731;50.754;12.990;2023-01-30T02:08:55;17.38;;;9.77;;
5416;SDS011;2731;50.754;12.990;2023-01-30T02:11:31;16.00;;;9.02;;
5416;SDS011;2731;50.754;12.990;2023-01-30T02:13:58;14.13;;;8.50;;
5416;SDS011;2731;50.754;12.990;2023-01-30T02:16:25;15.95;;;8.48;;
5416;SDS011;2731;50.754;12.990;2023-01-30T02:18:51;17.75;;;10.00;;
5416;SDS011;2731;50.754;12.990;2023-01-30T02:34:20;18.88;;;9.70;;
5416;SDS011;2731;50.754;12.990;2023-01-30T02:44:14;16.20;;;9.52;;
5416;SDS011;2731;50.754;12.990;2023-01-30T02:46:50;15.45;;;8.82;;
5416;SDS011;2731;50.754;12.990;2023-01-30T02:49:19;15.55;;;8.68;;
5416;SDS011;2731;50.754;12.990;2023-01-30T02:51:48;17.13;;;8.23;;
5416;SDS011;2731;50.754;12.990;2023-01-30T02:54:15;15.32;;;7.82;;
5416;SDS011;2731;50.754;12.990;2023-01-30T02:56:51;15.80;;;8.90;;
5416;SDS011;2731;50.754;12.990;2023-01-30T03:04:23;13.77;;;7.65;;
5416;SDS011;2731;50.754;12.990;2023-01-30T03:15:02;14.98;;;8.02;;
5416;SDS011;2731;50.754;12.990;2023-01-30T03:17:30;10.75;;;6.55;;
5416;SDS011;2731;50.754;12.990;2023-01-30T03:19:57;11.48;;;6.45;;
5416;SDS011;2731;50.754;12.990;2023-01-30T03:22:23;11.93;;;6.80;;
5416;SDS011;2731;50.754;12.990;2023-01-30T03:24:50;12.77;;;7.70;;
5416;SDS011;2731;50.754;12.990;2023-01-30T03:27:17;16.27;;;7.93;;
5416;SDS011;2731;50.754;12.990;2023-01-30T03:29:44;12.60;;;7.40;;
5416;SDS011;2731;50.754;12.990;2023-01-30T03:32:10;12.57;;;7.07;;
5416;SDS011;2731;50.754;12.990;2023-01-30T03:34:36;15.45;;;9.02;;
5416;SDS011;2731;50.754;12.990;2023-01-30T03:37:02;15.27;;;8.82;;
5416;SDS011;2731;50.754;12.990;2023-01-30T03:39:29;15.25;;;8.32;;
5416;SDS011;2731;50.754;12.990;2023-01-30T03:41:55;15.20;;;9.07;;
5416;SDS011;2731;50.754;12.990;2023-01-30T03:44:21;13.77;;;8.15;;
5416;SDS011;2731;50.754;12.990;2023-01-30T03:46:47;14.88;;;8.48;;
5416;SDS011;2731;50.754;12.990;2023-01-30T03:49:14;15.77;;;9.30;;
5416;SDS011;2731;50.754;12.990;2023-01-30T03:51:40;15.63;;;9.05;;
5416;SDS011;2731;50.754;12.990;2023-01-30T03:54:06;16.25;;;8.77;;
5416;SDS011;2731;50.754;12.990;2023-01-30T03:56:33;15.07;;;7.90;;
5416;SDS011;2731;50.754;12.990;2023-01-30T03:59:01;16.42;;;9.55;;
5416;SDS011;2731;50.754;12.990;2023-01-30T04:01:27;14.43;;;8.20;;
5416;SDS011;2731;50.754;12.990;2023-01-30T04:03:53;13.68;;;7.53;;
5416;SDS011;2731;50.754;12.990;2023-01-30T04:06:19;14.48;;;7.60;;
5416;SDS011;2731;50.754;12.990;2023-01-30T04:08:46;14.40;;;8.18;;
5416;SDS011;2731;50.754;12.990;2023-01-30T04:11:14;12.82;;;7.75;;
5416;SDS011;2731;50.754;12.990;2023-01-30T04:13:41;16.05;;;7.90;;
5416;SDS011;2731;50.754;12.990;2023-01-30T04:18:42;13.23;;;7.80;;
5416;SDS011;2731;50.754;12.990;2023-01-30T04:21:08;14.52;;;8.00;;
5416;SDS011;2731;50.754;12.990;2023-01-30T04:23:34;14.00;;;8.38;;
5416;SDS011;2731;50.754;12.990;2023-01-30T04:26:02;13.60;;;8.27;;
5416;SDS011;2731;50.754;12.990;2023-01-30T04:28:29;12.30;;;7.85;;
5416;SDS011;2731;50.754;12.990;2023-01-30T04:30:55;13.40;;;7.55;;
5416;SDS011;2731;50.754;12.990;2023-01-30T04:33:21;14.52;;;7.63;;
5416;SDS011;2731;50.754;12.990;2023-01-30T04:35:51;13.25;;;7.32;;
5416;SDS011;2731;50.754;12.990;2023-01-30T04:38:17;12.55;;;8.38;;
5416;SDS011;2731;50.754;12.990;2023-01-30T04:40:47;12.57;;;7.82;;
5416;SDS011;2731;50.754;12.990;2023-01-30T04:43:13;13.70;;;7.68;;
5416;SDS011;2731;50.754;12.990;2023-01-30T04:45:44;14.23;;;7.85;;
5416;SDS011;2731;50.754;12.990;2023-01-30T04:48:12;13.90;;;7.75;;
5416;SDS011;2731;50.754;12.990;2023-01-30T04:50:39;13.57;;;8.00;;
5416;SDS011;2731;50.754;12.990;2023-01-30T04:53:05;12.50;;;8.15;;
5416;SDS011;2731;50.754;12.990;2023-01-30T04:55:31;12.73;;;7.20;;
5416;SDS011;2731;50.754;12.990;2023-01-30T04:57:57;11.85;;;7.07;;
5416;SDS011;2731;50.754;12.990;2023-01-30T05:00:24;13.50;;;6.78;;
5416;SDS011;2731;50.754;12.990;2023-01-30T05:02:50;9.80;;;6.22;;
5416;SDS011;2731;50.754;12.990;2023-01-30T05:05:16;12.18;;;7.03;;
5416;SDS011;2731;50.754;12.990;2023-01-30T05:07:43;11.88;;;7.13;;
5416;SDS011;2731;50.754;12.990;2023-01-30T05:10:11;15.10;;;7.93;;
5416;SDS011;2731;50.754;12.990;2023-01-30T05:12:37;10.38;;;6.55;;
5416;SDS011;2731;50.754;12.990;2023-01-30T05:15:03;11.73;;;6.38;;
5416;SDS011;2731;50.754;12.990;2023-01-30T05:17:30;11.93;;;6.72;;
5416;SDS011;2731;50.754;12.990;2023-01-30T05:19:56;13.32;;;7.97;;
5416;SDS011;2731;50.754;12.990;2023-01-30T05:22:22;12.40;;;7.65;;
5416;SDS011;2731;50.754;12.990;2023-01-30T05:24:49;13.18;;;7.40;;
5416;SDS011;2731;50.754;12.990;2023-01-30T05:27:15;12.80;;;7.93;;
5416;SDS011;2731;50.754;12.990;2023-01-30T05:29:41;12.63;;;7.18;;
5416;SDS011;2731;50.754;12.990;2023-01-30T05:32:08;13.45;;;7.05;;
5416;SDS011;2731;50.754;12.990;2023-01-30T05:34:35;10.63;;;6.93;;
5416;SDS011;2731;50.754;12.990;2023-01-30T05:37:02;11.68;;;7.20;;
5416;SDS011;2731;50.754;12.990;2023-01-30T05:39:28;13.75;;;7.53;;
5416;SDS011;2731;50.754;12.990;2023-01-30T05:41:54;12.90;;;7.05;;
5416;SDS011;2731;50.754;12.990;2023-01-30T05:44:20;12.15;;;7.43;;
5416;SDS011;2731;50.754;12.990;2023-01-30T05:46:46;11.98;;;7.50;;
5416;SDS011;2731;50.754;12.990;2023-01-30T05:49:12;13.65;;;7.57;;
5416;SDS011;2731;50.754;12.990;2023-01-30T05:51:38;13.50;;;7.43;;
5416;SDS011;2731;50.754;12.990;2023-01-30T05:54:04;13.95;;;7.93;;
5416;SDS011;2731;50.754;12.990;2023-01-30T05:56:30;13.07;;;7.72;;
5416;SDS011;2731;50.754;12.990;2023-01-30T05:58:57;11.60;;;6.90;;
5416;SDS011;2731;50.754;12.990;2023-01-30T06:01:23;13.65;;;7.57;;
5416;SDS011;2731;50.754;12.990;2023-01-30T06:03:50;12.52;;;7.30;;
5416;SDS011;2731;50.754;12.990;2023-01-30T06:06:16;13.98;;;7.55;;
5416;SDS011;2731;50.754;12.990;2023-01-30T06:08:42;12.75;;;7.85;;
5416;SDS011;2731;50.754;12.990;2023-01-30T06:11:10;14.13;;;7.95;;
5416;SDS011;2731;50.754;12.990;2023-01-30T06:13:36;12.63;;;7.97;;
5416;SDS011;2731;50.754;12.990;2023-01-30T06:16:03;16.02;;;7.53;;
5416;SDS011;2731;50.754;12.990;2023-01-30T06:18:29;11.32;;;7.28;;
5416;SDS011;2731;50.754;12.990;2023-01-30T06:20:55;12.75;;;8.05;;
5416;SDS011;2731;50.754;12.990;2023-01-30T06:23:21;13.88;;;7.32;;
5416;SDS011;2731;50.754;12.990;2023-01-30T06:25:49;13.82;;;7.47;;
5416;SDS011;2731;50.754;12.990;2023-01-30T06:28:15;12.60;;;7.57;;
5416;SDS011;2731;50.754;12.990;2023-01-30T06:30:42;10.18;;;6.88;;
5416;SDS011;2731;50.754;12.990;2023-01-30T06:33:08;11.65;;;7.15;;
5416;SDS011;2731;50.754;12.990;2023-01-30T06:35:36;11.18;;;6.63;;
5416;SDS011;2731;50.754;12.990;2023-01-30T06:38:02;11.15;;;6.18;;
5416;SDS011;2731;50.754;12.990;2023-01-30T06:40:28;11.55;;;6.88;;
5416;SDS011;2731;50.754;12.990;2023-01-30T06:42:55;8.13;;;5.75;;
5416;SDS011;2731;50.754;12.990;2023-01-30T06:45:22;10.27;;;6.45;;
5416;SDS011;2731;50.754;12.990;2023-01-30T06:47:48;9.40;;;5.55;;
5416;SDS011;2731;50.754;12.990;2023-01-30T06:50:16;8.98;;;5.35;;
5416;SDS011;2731;50.754;12.990;2023-01-30T06:52:43;9.80;;;5.82;;
5416;SDS011;2731;50.754;12.990;2023-01-30T06:55:10;11.13;;;6.22;;
5416;SDS011;2731;50.754;12.990;2023-01-30T06:57:36;9.02;;;5.68;;
5416;SDS011;2731;50.754;12.990;2023-01-30T07:00:03;8.82;;;5.15;;
5416;SDS011;2731;50.754;12.990;2023-01-30T07:02:29;7.63;;;4.82;;
5416;SDS011;2731;50.754;12.990;2023-01-30T07:04:59;10.05;;;6.38;;
5416;SDS011;2731;50.754;12.990;2023-01-30T07:07:25;8.85;;;5.07;;
5416;SDS011;2731;50.754;12.990;2023-01-30T07:09:51;9.70;;;5.43;;
5416;SDS011;2731;50.754;12.990;2023-01-30T07:12:17;7.15;;;5.10;;
5416;SDS011;2731;50.754;12.990;2023-01-30T07:14:44;9.15;;;5.20;;
5416;SDS011;2731;50.754;12.990;2023-01-30T07:17:10;7.88;;;4.55;;
5416;SDS011;2731;50.754;12.990;2023-01-30T07:19:36;7.70;;;4.60;;
5416;SDS011;2731;50.754;12.990;2023-01-30T07:22:03;7.68;;;5.25;;
5416;SDS011;2731;50.754;12.990;2023-01-30T07:24:30;10.13;;;5.78;;
5416;SDS011;2731;50.754;12.990;2023-01-30T07:26:56;6.40;;;4.75;;
5416;SDS011;2731;50.754;12.990;2023-01-30T07:29:23;7.47;;;4.75;;
5416;SDS011;2731;50.754;12.990;2023-01-30T07:31:50;8.05;;;5.32;;
5416;SDS011;2731;50.754;12.990;2023-01-30T07:34:16;6.78;;;4.55;;
5416;SDS011;2731;50.754;12.990;2023-01-30T07:36:42;8.57;;;5.15;;
5416;SDS011;2731;50.754;12.990;2023-01-30T07:39:08;9.57;;;4.38;;
5416;SDS011;2731;50.754;12.990;2023-01-30T07:41:34;7.55;;;4.88;;
5416;SDS011;2731;50.754;12.990;2023-01-30T07:44:01;7.50;;;4.50;;
5416;SDS011;2731;50.754;12.990;2023-01-30T07:46:27;8.02;;;5.40;;
5416;SDS011;2731;50.754;12.990;2023-01-30T07:49:02;7.00;;;4.75;;
5416;SDS011;2731;50.754;12.990;2023-01-30T07:51:28;7.30;;;4.63;;
5416;SDS011;2731;50.754;12.990;2023-01-30T07:53:54;6.38;;;4.03;;
5416;SDS011;2731;50.754;12.990;2023-01-30T07:56:20;8.90;;;4.78;;
5416;SDS011;2731;50.754;12.990;2023-01-30T07:58:46;7.70;;;4.35;;
5416;SDS011;2731;50.754;12.990;2023-01-30T08:01:13;6.63;;;4.00;;
5416;SDS011;2731;50.754;12.990;2023-01-30T08:03:39;8.02;;;5.18;;
5416;SDS011;2731;50.754;12.990;2023-01-30T08:06:05;7.25;;;4.68;;
5416;SDS011;2731;50.754;12.990;2023-01-30T08:08:32;7.60;;;4.30;;
5416;SDS011;2731;50.754;12.990;2023-01-30T08:10:58;6.70;;;4.40;;
5416;SDS011;2731;50.754;12.990;2023-01-30T08:13:24;5.85;;;4.13;;
5416;SDS011;2731;50.754;12.990;2023-01-30T08:15:50;5.30;;;3.58;;
5416;SDS011;2731;50.754;12.990;2023-01-30T08:18:16;9.57;;;4.72;;
5416;SDS011;2731;50.754;12.990;2023-01-30T08:20:42;7.43;;;4.15;;
5416;SDS011;2731;50.754;12.990;2023-01-30T08:23:09;7.80;;;4.40;;
5416;SDS011;2731;50.754;12.990;2023-01-30T08:25:35;9.10;;;4.93;;
5416;SDS011;2731;50.754;12.990;2023-01-30T08:28:02;6.03;;;3.63;;
5416;SDS011;2731;50.754;12.990;2023-01-30T08:30:28;8.32;;;4.53;;
5416;SDS011;2731;50.754;12.990;2023-01-30T08:32:55;6.07;;;4.28;;
5416;SDS011;2731;50.754;12.990;2023-01-30T08:35:22;4.82;;;3.20;;
5416;SDS011;2731;50.754;12.990;2023-01-30T08:37:48;9.13;;;5.18;;
5416;SDS011;2731;50.754;12.990;2023-01-30T08:40:14;6.95;;;4.18;;
5416;SDS011;2731;50.754;12.990;2023-01-30T08:42:43;8.07;;;4.75;;
5416;SDS011;2731;50.754;12.990;2023-01-30T08:45:09;7.20;;;4.72;;
5416;SDS011;2731;50.754;12.990;2023-01-30T08:47:35;7.22;;;4.00;;
5416;SDS011;2731;50.754;12.990;2023-01-30T08:50:02;6.47;;;4.97;;
5416;SDS011;2731;50.754;12.990;2023-01-30T08:52:28;8.60;;;5.35;;
5416;SDS011;2731;50.754;12.990;2023-01-30T08:54:54;5.90;;;3.47;;
5416;SDS011;2731;50.754;12.990;2023-01-30T08:57:20;5.82;;;4.25;;
5416;SDS011;2731;50.754;12.990;2023-01-30T08:59:46;5.75;;;3.88;;
5416;SDS011;2731;50.754;12.990;2023-01-30T09:02:15;6.90;;;3.88;;
5416;SDS011;2731;50.754;12.990;2023-01-30T09:04:41;5.35;;;3.55;;
5416;SDS011;2731;50.754;12.990;2023-01-30T09:07:07;5.68;;;3.75;;
5416;SDS011;2731;50.754;12.990;2023-01-30T09:09:34;4.97;;;3.15;;
5416;SDS011;2731;50.754;12.990;2023-01-30T09:12:00;5.90;;;3.70;;
5416;SDS011;2731;50.754;12.990;2023-01-30T09:14:26;6.22;;;4.05;;
5416;SDS011;2731;50.754;12.990;2023-01-30T09:16:52;7.45;;;4.35;;
5416;SDS011;2731;50.754;12.990;2023-01-30T09:19:22;6.18;;;3.60;;
5416;SDS011;2731;50.754;12.990;2023-01-30T09:21:48;8.68;;;5.10;;
5416;SDS011;2731;50.754;12.990;2023-01-30T09:24:15;5.35;;;3.42;;
5416;SDS011;2731;50.754;12.990;2023-01-30T09:26:41;6.05;;;3.33;;
5416;SDS011;2731;50.754;12.990;2023-01-30T09:29:12;4.15;;;2.97;;
5416;SDS011;2731;50.754;12.990;2023-01-30T09:31:39;12.43;;;6.90;;
5416;SDS011;2731;50.754;12.990;2023-01-30T09:34:05;10.00;;;5.40;;
5416;SDS011;2731;50.754;12.990;2023-01-30T09:36:32;4.32;;;2.65;;
5416;SDS011;2731;50.754;12.990;2023-01-30T09:38:58;8.32;;;4.15;;
5416;SDS011;2731;50.754;12.990;2023-01-30T09:54:42;7.13;;;3.17;;
5416;SDS011;2731;50.754;12.990;2023-01-30T09:57:10;8.23;;;3.15;;
5416;SDS011;2731;50.754;12.990;2023-01-30T09:59:50;5.55;;;2.90;;
5416;SDS011;2731;50.754;12.990;2023-01-30T10:02:32;4.30;;;2.55;;
5416;SDS011;2731;50.754;12.990;2023-01-30T10:04:58;4.65;;;3.03;;
5416;SDS011;2731;50.754;12.990;2023-01-30T10:07:31;3.83;;;2.03;;
5416;SDS011;2731;50.754;12.990;2023-01-30T10:25:46;4.05;;;2.70;;
5416;SDS011;2731;50.754;12.990;2023-01-30T10:30:40;4.13;;;2.67;;
5416;SDS011;2731;50.754;12.990;2023-01-30T10:33:14;3.72;;;2.22;;
5416;SDS011;2731;50.754;12.990;2023-01-30T10:35:44;4.38;;;2.28;;
5416;SDS011;2731;50.754;12.990;2023-01-30T10:38:19;6.07;;;2.47;;
5416;SDS011;2731;50.754;12.990;2023-01-30T10:43:31;4.70;;;2.85;;
5416;SDS011;2731;50.754;12.990;2023-01-30T10:48:37;3.53;;;2.38;;
5416;SDS011;2731;50.754;12.990;2023-01-30T10:51:09;30.05;;;10.90;;
5416;SDS011;2731;50.754;12.990;2023-01-30T10:53:41;22.70;;;9.82;;
5416;SDS011;2731;50.754;12.990;2023-01-30T10:56:17;5.13;;;2.97;;
5416;SDS011;2731;50.754;12.990;2023-01-30T10:58:50;4.90;;;3.15;;
5416;SDS011;2731;50.754;12.990;2023-01-30T11:01:22;4.28;;;2.75;;
5416;SDS011;2731;50.754;12.990;2023-01-30T11:03:55;8.30;;;4.35;;
5416;SDS011;2731;50.754;12.990;2023-01-30T11:06:24;13.65;;;5.60;;
5416;SDS011;2731;50.754;12.990;2023-01-30T11:08:51;10.30;;;5.82;;
5416;SDS011;2731;50.754;12.990;2023-01-30T11:11:28;8.38;;;4.35;;
5416;SDS011;2731;50.754;12.990;2023-01-30T11:14:04;33.42;;;13.75;;
5416;SDS011;2731;50.754;12.990;2023-01-30T11:16:32;10.48;;;6.40;;
5416;SDS011;2731;50.754;12.990;2023-01-30T11:18:59;14.02;;;5.88;;
5416;SDS011;2731;50.754;12.990;2023-01-30T11:21:29;8.77;;;4.78;;
5416;SDS011;2731;50.754;12.990;2023-01-30T11:23:56;15.20;;;7.75;;
5416;SDS011;2731;50.754;12.990;2023-01-30T11:26:31;9.05;;;5.22;;
5416;SDS011;2731;50.754;12.990;2023-01-30T11:28:57;11.05;;;6.13;;
5416;SDS011;2731;50.754;12.990;2023-01-30T11:31:24;9.73;;;5.63;;
5416;SDS011;2731;50.754;12.990;2023-01-30T11:34:04;10.55;;;5.28;;
5416;SDS011;2731;50.754;12.990;2023-01-30T11:36:32;7.38;;;4.60;;
5416;SDS011;2731;50.754;12.990;2023-01-30T11:39:03;7.18;;;4.75;;
5416;SDS011;2731;50.754;12.990;2023-01-30T11:41:29;8.55;;;4.38;;
5416;SDS011;2731;50.754;12.990;2023-01-30T11:44:02;8.38;;;4.72;;
5416;SDS011;2731;50.754;12.990;2023-01-30T11:46:30;6.00;;;3.53;;
5416;SDS011;2731;50.754;12.990;2023-01-30T11:48:59;11.77;;;4.65;;
5416;SDS011;2731;50.754;12.990;2023-01-30T11:51:26;6.63;;;3.90;;
5416;SDS011;2731;50.754;12.990;2023-01-30T11:54:28;6.00;;;3.78;;
5416;SDS011;2731;50.754;12.990;2023-01-30T11:56:51;12.95;;;4.32;;
5416;SDS011;2731;50.754;12.990;2023-01-30T12:01:44;6.82;;;4.03;;
5416;SDS011;2731;50.754;12.990;2023-01-30T12:04:11;6.72;;;3.72;;
5416;SDS011;2731;50.754;12.990;2023-01-30T12:06:39;6.03;;;4.30;;
5416;SDS011;2731;50.754;12.990;2023-01-30T12:09:33;5.00;;;3.13;;
5416;SDS011;2731;50.754;12.990;2023-01-30T12:11:52;7.03;;;4.03;;
5416;SDS011;2731;50.754;12.990;2023-01-30T12:17:02;9.48;;;3.72;;
5416;SDS011;2731;50.754;12.990;2023-01-30T12:19:36;4.22;;;3.22;;
5416;SDS011;2731;50.754;12.990;2023-01-30T12:22:20;5.07;;;3.30;;
5416;SDS011;2731;50.754;12.990;2023-01-30T12:24:57;5.65;;;2.60;;
5416;SDS011;2731;50.754;12.990;2023-01-30T12:27:25;5.55;;;3.95;;
5416;SDS011;2731;50.754;12.990;2023-01-30T12:30:04;5.93;;;2.40;;
5416;SDS011;2731;50.754;12.990;2023-01-30T12:32:33;3.53;;;2.55;;
5416;SDS011;2731;50.754;12.990;2023-01-30T12:35:00;6.25;;;2.50;;
5416;SDS011;2731;50.754;12.990;2023-01-30T12:37:30;3.83;;;2.30;;
5416;SDS011;2731;50.754;12.990;2023-01-30T12:53:35;3.38;;;2.55;;
5416;SDS011;2731;50.754;12.990;2023-01-30T13:11:59;4.63;;;2.88;;
5416;SDS011;2731;50.754;12.990;2023-01-30T13:17:04;6.32;;;2.80;;
5416;SDS011;2731;50.754;12.990;2023-01-30T13:22:22;6.40;;;3.38;;
5416;SDS011;2731;50.754;12.990;2023-01-30T13:27:28;11.15;;;3.88;;
5416;SDS011;2731;50.754;12.990;2023-01-30T13:29:55;4.70;;;2.60;;
5416;SDS011;2731;50.754;12.990;2023-01-30T13:32:29;5.32;;;2.53;;
5416;SDS011;2731;50.754;12.990;2023-01-30T13:34:57;6.45;;;2.78;;
5416;SDS011;2731;50.754;12.990;2023-01-30T13:37:24;6.25;;;2.70;;
5416;SDS011;2731;50.754;12.990;2023-01-30T13:40:24;4.90;;;2.70;;
5416;SDS011;2731;50.754;12.990;2023-01-30T13:43:10;4.72;;;2.88;;
5416;SDS011;2731;50.754;12.990;2023-01-30T13:45:34;6.88;;;3.05;;
5416;SDS011;2731;50.754;12.990;2023-01-30T13:53:20;5.22;;;2.75;;
5416;SDS011;2731;50.754;12.990;2023-01-30T13:55:50;9.18;;;3.58;;
5416;SDS011;2731;50.754;12.990;2023-01-30T13:58:41;6.00;;;2.47;;
5416;SDS011;2731;50.754;12.990;2023-01-30T14:01:09;4.45;;;2.50;;
5416;SDS011;2731;50.754;12.990;2023-01-30T14:03:36;5.32;;;2.90;;
5416;SDS011;2731;50.754;12.990;2023-01-30T14:08:34;6.88;;;2.60;;
5416;SDS011;2731;50.754;12.990;2023-01-30T14:11:02;10.88;;;3.55;;
5416;SDS011;2731;50.754;12.990;2023-01-30T14:13:29;8.93;;;2.60;;
5416;SDS011;2731;50.754;12.990;2023-01-30T14:15:56;5.38;;;2.50;;
5416;SDS011;2731;50.754;12.990;2023-01-30T14:18:32;6.72;;;3.03;;
5416;SDS011;2731;50.754;12.990;2023-01-30T14:29:06;8.25;;;3.45;;
5416;SDS011;2731;50.754;12.990;2023-01-30T14:31:48;3.70;;;2.58;;
5416;SDS011;2731;50.754;12.990;2023-01-30T14:38:10;4.07;;;2.35;;
5416;SDS011;2731;50.754;12.990;2023-01-30T14:45:46;5.28;;;2.35;;
5416;SDS011;2731;50.754;12.990;2023-01-30T14:48:58;4.13;;;2.33;;
5416;SDS011;2731;50.754;12.990;2023-01-30T14:53:57;4.38;;;2.00;;
5416;SDS011;2731;50.754;12.990;2023-01-30T15:01:53;3.75;;;2.17;;
5416;SDS011;2731;50.754;12.990;2023-01-30T15:04:20;5.55;;;2.65;;
5416;SDS011;2731;50.754;12.990;2023-01-30T15:06:48;9.50;;;4.60;;
5416;SDS011;2731;50.754;12.990;2023-01-30T15:09:17;5.72;;;2.25;;
5416;SDS011;2731;50.754;12.990;2023-01-30T15:11:44;6.60;;;3.25;;
5416;SDS011;2731;50.754;12.990;2023-01-30T15:14:22;3.65;;;2.17;;
5416;SDS011;2731;50.754;12.990;2023-01-30T15:27:35;8.40;;;4.13;;
5416;SDS011;2731;50.754;12.990;2023-01-30T15:32:33;7.38;;;2.17;;
5416;SDS011;2731;50.754;12.990;2023-01-30T15:42:49;6.32;;;2.60;;
5416;SDS011;2731;50.754;12.990;2023-01-30T15:45:35;3.42;;;2.10;;
5416;SDS011;2731;50.754;12.990;2023-01-30T15:48:17;10.38;;;2.30;;
5416;SDS011;2731;50.754;12.990;2023-01-30T15:50:47;5.73;;;2.43;;
5416;SDS011;2731;50.754;12.990;2023-01-30T15:53:14;7.03;;;1.98;;
5416;SDS011;2731;50.754;12.990;2023-01-30T15:55:40;7.20;;;2.40;;
5416;SDS011;2731;50.754;12.990;2023-01-30T15:58:15;6.10;;;2.55;;
5416;SDS011;2731;50.754;12.990;2023-01-30T16:00:48;10.30;;;3.60;;
5416;SDS011;2731;50.754;12.990;2023-01-30T16:03:22;10.98;;;3.40;;
5416;SDS011;2731;50.754;12.990;2023-01-30T16:05:50;7.03;;;2.47;;
5416;SDS011;2731;50.754;12.990;2023-01-30T16:08:37;11.07;;;3.70;;
5416;SDS011;2731;50.754;12.990;2023-01-30T16:11:02;6.93;;;2.67;;
5416;SDS011;2731;50.754;12.990;2023-01-30T16:13:28;9.38;;;1.95;;
5416;SDS011;2731;50.754;12.990;2023-01-30T16:18:34;7.30;;;2.72;;
5416;SDS011;2731;50.754;12.990;2023-01-30T16:21:03;5.20;;;2.22;;
5416;SDS011;2731;50.754;12.990;2023-01-30T16:23:34;6.70;;;2.00;;
5416;SDS011;2731;50.754;12.990;2023-01-30T16:26:01;6.50;;;2.13;;
5416;SDS011;2731;50.754;12.990;2023-01-30T16:28:28;10.73;;;2.20;;
5416;SDS011;2731;50.754;12.990;2023-01-30T16:30:58;5.75;;;1.60;;
5416;SDS011;2731;50.754;12.990;2023-01-30T16:33:24;11.43;;;2.60;;
5416;SDS011;2731;50.754;12.990;2023-01-30T16:35:51;5.10;;;2.10;;
5416;SDS011;2731;50.754;12.990;2023-01-30T16:39:13;10.77;;;1.77;;
5416;SDS011;2731;50.754;12.990;2023-01-30T16:41:27;6.43;;;2.08;;
5416;SDS011;2731;50.754;12.990;2023-01-30T16:49:36;7.97;;;2.65;;
5416;SDS011;2731;50.754;12.990;2023-01-30T16:52:14;6.82;;;1.90;;
5416;SDS011;2731;50.754;12.990;2023-01-30T16:54:44;7.30;;;1.98;;
5416;SDS011;2731;50.754;12.990;2023-01-30T16:57:22;11.13;;;1.95;;
5416;SDS011;2731;50.754;12.990;2023-01-30T16:59:51;5.47;;;2.05;;
5416;SDS011;2731;50.754;12.990;2023-01-30T17:02:24;6.30;;;1.45;;
5416;SDS011;2731;50.754;12.990;2023-01-30T17:04:52;9.50;;;1.85;;
5416;SDS011;2731;50.754;12.990;2023-01-30T17:07:29;5.10;;;1.50;;
5416;SDS011;2731;50.754;12.990;2023-01-30T17:09:56;6.68;;;1.73;;
5416;SDS011;2731;50.754;12.990;2023-01-30T17:17:37;11.50;;;1.83;;
5416;SDS011;2731;50.754;12.990;2023-01-30T17:20:03;7.05;;;1.30;;
5416;SDS011;2731;50.754;12.990;2023-01-30T17:22:29;8.57;;;1.55;;
5416;SDS011;2731;50.754;12.990;2023-01-30T17:24:58;6.28;;;1.40;;
5416;SDS011;2731;50.754;12.990;2023-01-30T17:27:26;5.68;;;1.45;;
5416;SDS011;2731;50.754;12.990;2023-01-30T17:29:53;5.43;;;1.50;;
5416;SDS011;2731;50.754;12.990;2023-01-30T17:32:19;7.10;;;1.63;;
5416;SDS011;2731;50.754;12.990;2023-01-30T17:34:45;6.38;;;1.40;;
5416;SDS011;2731;50.754;12.990;2023-01-30T17:37:19;8.02;;;2.45;;
5416;SDS011;2731;50.754;12.990;2023-01-30T17:39:46;6.63;;;2.00;;
5416;SDS011;2731;50.754;12.990;2023-01-30T17:42:12;7.18;;;1.83;;
5416;SDS011;2731;50.754;12.990;2023-01-30T17:44:39;6.65;;;1.98;;
5416;SDS011;2731;50.754;12.990;2023-01-30T17:47:07;9.82;;;4.20;;
5416;SDS011;2731;50.754;12.990;2023-01-30T17:49:34;3.97;;;2.25;;
5416;SDS011;2731;50.754;12.990;2023-01-30T17:52:00;4.72;;;1.45;;
5416;SDS011;2731;50.754;12.990;2023-01-30T17:54:26;8.57;;;1.70;;
5416;SDS011;2731;50.754;12.990;2023-01-30T17:56:58;8.57;;;1.80;;
5416;SDS011;2731;50.754;12.990;2023-01-30T17:59:28;8.18;;;1.67;;
5416;SDS011;2731;50.754;12.990;2023-01-30T18:01:55;6.07;;;1.38;;
5416;SDS011;2731;50.754;12.990;2023-01-30T18:04:21;12.88;;;2.83;;
5416;SDS011;2731;50.754;12.990;2023-01-30T18:07:10;11.65;;;2.25;;